Time;durP1;ratioP1;P1;durP2;ratioP2;P2;SDS_P1;SDS_P2;PMS_P1;PMS_P2;Temp;Humidity;BMP_temperature;BMP_pressure;BME280_temperature;BME280_humidity;BME280_pressure;Samples;Min_cycle;Max_cycle;Signal;HPM_P1;HPM_P2
2022/03/20 00:00:53;;;;;;;19.47;12.03;;;5.10;99.90;;;;;;5093623;28;20288;-41
2022/03/20 00:03:21;;;;;;;18.30;12.47;;;5.10;99.90;;;;;;5075293;28;20654;-41
2022/03/20 00:05:48;;;;;;;17.67;12.10;;;5.00;99.90;;;;;;5093591;28;20203;-43
2022/03/20 00:08:14;;;;;;;24.10;12.73;;;5.00;99.90;;;;;;5093731;28;20182;-38
2022/03/20 00:10:45;;;;;;;18.60;13.30;;;5.00;99.90;;;;;;5093205;28;20187;-41
2022/03/20 00:13:13;;;;;;;21.23;13.30;;;5.00;99.90;;;;;;5093418;28;20195;-43
2022/03/20 00:15:42;;;;;;;18.80;12.93;;;5.00;99.90;;;;;;5093466;28;20183;-40
2022/03/20 00:18:12;;;;;;;20.63;13.03;;;5.00;99.90;;;;;;5075457;28;20191;-42
2022/03/20 00:20:40;;;;;;;21.77;13.27;;;5.00;99.90;;;;;;5093193;28;20203;-43
2022/03/20 00:23:08;;;;;;;19.43;12.70;;;4.90;99.90;;;;;;5079093;28;20629;-43
2022/03/20 00:25:34;;;;;;;21.63;13.10;;;4.90;99.90;;;;;;5097393;28;20665;-41
2022/03/20 00:28:02;;;;;;;19.83;13.27;;;4.80;99.90;;;;;;5078790;28;20182;-42
2022/03/20 00:30:28;;;;;;;25.47;14.13;;;4.80;99.90;;;;;;5096947;28;20278;-43
2022/03/20 00:32:53;;;;;;;22.03;12.80;;;4.70;99.90;;;;;;5097713;28;20298;-42
2022/03/20 00:35:19;;;;;;;21.43;12.63;;;4.70;99.90;;;;;;5098141;28;20173;-43
2022/03/20 00:37:44;;;;;;;32.50;13.37;;;4.60;99.90;;;;;;5097340;28;20223;-43
2022/03/20 00:40:10;;;;;;;21.70;12.73;;;4.70;99.90;;;;;;5098148;28;20299;-44
2022/03/20 00:42:36;;;;;;;20.83;12.83;;;4.60;99.90;;;;;;5098851;28;20187;-40
2022/03/20 00:45:02;;;;;;;21.43;12.93;;;4.60;99.90;;;;;;5098232;28;20229;-46
2022/03/20 00:47:27;;;;;;;17.53;12.60;;;4.50;99.90;;;;;;5099214;28;20270;-42
2022/03/20 00:49:53;;;;;;;21.60;12.60;;;4.50;99.90;;;;;;5097994;28;20606;-46
2022/03/20 00:52:19;;;;;;;21.77;12.63;;;4.50;99.90;;;;;;5096946;28;20218;-41
2022/03/20 00:54:44;;;;;;;25.33;13.63;;;4.40;99.90;;;;;;5100146;28;20175;-46
2022/03/20 00:57:10;;;;;;;19.70;12.80;;;4.30;99.90;;;;;;5102121;28;20187;-45
2022/03/20 00:59:35;;;;;;;18.80;12.33;;;4.20;99.90;;;;;;5101692;28;20272;-46
2022/03/20 01:02:01;;;;;;;24.80;14.50;;;4.10;99.90;;;;;;5084393;28;20178;-45
2022/03/20 01:04:26;;;;;;;20.57;13.33;;;4.00;99.90;;;;;;5103641;28;20209;-46
2022/03/20 01:06:55;;;;;;;23.87;14.10;;;3.90;99.90;;;;;;5103948;28;20171;-44
2022/03/20 01:09:22;;;;;;;22.57;14.90;;;3.90;99.90;;;;;;5102302;28;20249;-46
2022/03/20 01:11:48;;;;;;;21.87;13.63;;;3.80;99.90;;;;;;5102301;28;20178;-44
2022/03/20 01:14:13;;;;;;;26.63;13.60;;;3.80;99.90;;;;;;5099234;28;20175;-43
2022/03/20 01:16:39;;;;;;;29.33;14.60;;;3.80;99.90;;;;;;5096115;28;20641;-42
2022/03/20 01:19:06;;;;;;;21.30;13.57;;;3.80;99.90;;;;;;5096278;28;20203;-46
2022/03/20 01:21:31;;;;;;;22.40;13.10;;;3.80;99.90;;;;;;5078040;28;20171;-43
2022/03/20 01:23:57;;;;;;;21.40;13.00;;;3.70;99.90;;;;;;5096274;28;20667;-43
2022/03/20 01:26:23;;;;;;;22.37;13.53;;;3.70;99.90;;;;;;5077838;28;20686;-42
2022/03/20 01:28:48;;;;;;;22.50;15.20;;;3.60;99.90;;;;;;5096034;28;20203;-42
2022/03/20 01:31:14;;;;;;;22.63;14.70;;;3.60;99.90;;;;;;5096111;28;20510;-46
2022/03/20 01:33:41;;;;;;;24.10;15.53;;;3.50;99.90;;;;;;5095708;28;20685;-40
2022/03/20 01:36:06;;;;;;;23.93;14.43;;;3.60;99.90;;;;;;5095909;28;20214;-40
2022/03/20 01:38:32;;;;;;;25.83;15.43;;;3.60;99.90;;;;;;5096258;28;20226;-41
2022/03/20 01:41:00;;;;;;;22.43;13.83;;;3.60;99.90;;;;;;5077550;28;20254;-40
2022/03/20 01:43:25;;;;;;;23.37;13.70;;;3.50;99.90;;;;;;5095873;28;20186;-39
2022/03/20 01:45:52;;;;;;;24.90;14.43;;;3.60;99.90;;;;;;5095878;28;20262;-43
2022/03/20 01:48:18;;;;;;;24.17;15.07;;;3.60;99.90;;;;;;5078160;28;20225;-44
2022/03/20 01:50:44;;;;;;;27.23;16.37;;;3.60;99.90;;;;;;5095484;28;20171;-44
2022/03/20 01:53:10;;;;;;;23.87;14.23;;;3.60;99.90;;;;;;5095262;28;20674;-43
2022/03/20 01:55:36;;;;;;;23.40;14.27;;;3.60;99.90;;;;;;5095309;28;20196;-44
2022/03/20 01:58:02;;;;;;;26.80;14.63;;;3.60;99.90;;;;;;5095276;28;20508;-44
2022/03/20 02:00:28;;;;;;;22.87;15.07;;;3.60;99.90;;;;;;5095135;28;20210;-43
2022/03/20 02:02:55;;;;;;;19.73;14.30;;;3.60;99.90;;;;;;5077046;28;20183;-43
2022/03/20 02:05:21;;;;;;;28.70;14.17;;;3.60;99.90;;;;;;5095088;28;20174;-44
2022/03/20 02:07:48;;;;;;;21.87;14.70;;;3.50;99.90;;;;;;5095268;28;20650;-45
2022/03/20 02:10:15;;;;;;;23.30;14.93;;;3.50;99.90;;;;;;5094904;28;20195;-43
2022/03/20 02:12:41;;;;;;;22.90;13.13;;;3.60;99.90;;;;;;5060244;28;20313;-45
2022/03/20 02:15:09;;;;;;;29.03;15.90;;;3.60;99.90;;;;;;5095122;28;20185;-45
2022/03/20 02:17:36;;;;;;;25.40;13.57;;;3.60;99.90;;;;;;5094896;28;20681;-43
2022/03/20 02:20:04;;;;;;;24.27;15.30;;;3.70;99.90;;;;;;5076592;28;20230;-42
2022/03/20 02:22:32;;;;;;;26.13;14.77;;;3.80;99.90;;;;;;5094688;28;20236;-46
2022/03/20 02:25:04;;;;;;;24.83;14.90;;;3.80;99.90;;;;;;5095119;28;20664;-44
2022/03/20 02:27:32;;;;;;;27.10;13.93;;;3.90;99.90;;;;;;5094822;28;20171;-44
2022/03/20 02:30:00;;;;;;;26.67;14.23;;;3.90;99.90;;;;;;5094911;28;20210;-46
2022/03/20 02:32:28;;;;;;;27.90;14.87;;;4.00;99.90;;;;;;5076342;28;20252;-44
2022/03/20 02:34:55;;;;;;;23.17;14.30;;;4.00;99.90;;;;;;5076550;28;20175;-43
2022/03/20 02:37:23;;;;;;;28.03;15.37;;;4.00;99.90;;;;;;5094980;28;20171;-44
2022/03/20 02:39:50;;;;;;;26.27;14.50;;;4.00;99.90;;;;;;5095217;28;20225;-45
2022/03/20 02:42:17;;;;;;;21.47;13.40;;;4.10;99.90;;;;;;5094705;28;20167;-46
2022/03/20 02:45:00;;;;;;;26.17;14.50;;;4.00;99.90;;;;;;5094285;28;20542;-45
2022/03/20 02:47:32;;;;;;;22.00;13.90;;;4.00;99.90;;;;;;5095435;28;20182;-46
2022/03/20 02:50:00;;;;;;;23.60;13.63;;;4.00;99.90;;;;;;5095247;28;20202;-44
2022/03/20 02:52:28;;;;;;;21.00;14.03;;;4.00;99.90;;;;;;5076422;28;20206;-43
2022/03/20 02:54:55;;;;;;;23.20;13.83;;;4.00;99.90;;;;;;5076395;28;20175;-45
2022/03/20 02:57:20;;;;;;;24.00;13.60;;;4.00;99.90;;;;;;5094644;28;20175;-43
2022/03/20 02:59:46;;;;;;;22.13;14.63;;;4.00;99.90;;;;;;5094606;28;20210;-45
2022/03/20 03:02:13;;;;;;;28.63;15.27;;;3.90;99.90;;;;;;5094592;28;20647;-44
2022/03/20 03:04:41;;;;;;;22.37;12.90;;;3.90;99.90;;;;;;5060061;28;20645;-45
2022/03/20 03:07:07;;;;;;;24.60;14.97;;;3.90;99.90;;;;;;5094666;28;20170;-45
2022/03/20 03:12:17;;;;;;;28.40;15.03;;;3.70;99.90;;;;;;5094290;28;20252;-44
2022/03/20 03:17:29;;;;;;;25.97;16.23;;;3.70;99.90;;;;;;5094627;28;20177;-44
2022/03/20 03:19:56;;;;;;;21.90;13.43;;;3.70;99.90;;;;;;5076491;28;20195;-43
2022/03/20 03:22:25;;;;;;;24.07;15.57;;;3.60;99.90;;;;;;5094699;28;20183;-45
2022/03/20 03:24:51;;;;;;;25.87;15.20;;;3.70;99.90;;;;;;5094404;28;20179;-46
2022/03/20 03:27:16;;;;;;;21.33;14.80;;;3.60;99.90;;;;;;5093941;28;20251;-44
2022/03/20 03:29:42;;;;;;;21.37;14.27;;;3.60;99.90;;;;;;5093773;28;20206;-42
2022/03/20 03:32:08;;;;;;;25.97;15.90;;;3.60;99.90;;;;;;5093723;28;20669;-44
2022/03/20 03:37:20;;;;;;;25.93;15.57;;;3.50;99.90;;;;;;5094073;28;20166;-42
2022/03/20 03:39:46;;;;;;;24.97;15.17;;;3.50;99.90;;;;;;5095624;28;20226;-41
2022/03/20 03:42:12;;;;;;;24.07;13.70;;;3.50;99.90;;;;;;5093683;28;20261;-41
2022/03/20 03:44:39;;;;;;;19.87;13.80;;;3.50;99.90;;;;;;5093631;28;20273;-42
2022/03/20 03:47:05;;;;;;;26.13;14.90;;;3.40;99.90;;;;;;5094232;28;20365;-41
2022/03/20 03:49:31;;;;;;;24.77;15.70;;;3.40;99.90;;;;;;5093948;28;20569;-42
2022/03/20 03:51:57;;;;;;;29.63;15.87;;;3.40;99.90;;;;;;5093297;28;20214;-43
2022/03/20 03:54:23;;;;;;;23.13;15.00;;;3.40;99.90;;;;;;5093547;28;20644;-43
2022/03/20 03:56:48;;;;;;;26.33;15.97;;;3.40;99.90;;;;;;5077633;28;20175;-42
2022/03/20 03:59:14;;;;;;;24.27;14.70;;;3.40;99.90;;;;;;5097635;28;20229;-41
2022/03/20 04:01:40;;;;;;;26.90;15.53;;;3.30;99.90;;;;;;5097535;28;20257;-42
2022/03/20 04:04:05;;;;;;;23.17;15.30;;;3.30;99.90;;;;;;5097601;28;20174;-42
2022/03/20 04:06:32;;;;;;;25.83;15.60;;;3.30;99.90;;;;;;5097500;28;20171;-42
2022/03/20 04:08:57;;;;;;;27.90;15.83;;;3.30;99.90;;;;;;5097417;28;20202;-42
2022/03/20 04:11:23;;;;;;;23.80;15.47;;;3.30;99.90;;;;;;5097740;28;20269;-41
2022/03/20 04:13:49;;;;;;;23.87;14.57;;;3.30;99.90;;;;;;5097488;28;20293;-41
2022/03/20 04:16:14;;;;;;;25.40;14.73;;;3.30;99.90;;;;;;5097292;28;20183;-43
2022/03/20 04:18:40;;;;;;;35.43;17.57;;;3.20;99.90;;;;;;5097425;28;20280;-43
2022/03/20 04:21:05;;;;;;;24.80;16.37;;;3.20;99.90;;;;;;5079130;28;20213;-42
2022/03/20 04:23:45;;;;;;;28.07;15.60;;;3.10;99.90;;;;;;5097066;28;20631;-41
2022/03/20 04:26:21;;;;;;;24.83;15.77;;;3.20;99.90;;;;;;5097365;28;20591;-42
2022/03/20 04:28:49;;;;;;;28.17;16.17;;;3.10;99.90;;;;;;5097140;28;20210;-41
2022/03/20 04:31:17;;;;;;;25.70;15.33;;;3.10;99.90;;;;;;5097104;28;20573;-42
2022/03/20 04:33:45;;;;;;;23.50;15.33;;;3.00;99.90;;;;;;5096659;28;20688;-43
2022/03/20 04:36:11;;;;;;;25.40;16.23;;;3.00;99.90;;;;;;5097153;28;20555;-41
2022/03/20 04:38:37;;;;;;;30.50;16.60;;;3.00;99.90;;;;;;5096763;28;20290;-42
2022/03/20 04:41:03;;;;;;;27.83;15.80;;;3.00;99.90;;;;;;5097022;28;20559;-42
2022/03/20 04:43:29;;;;;;;27.70;15.43;;;3.00;99.90;;;;;;5097106;28;20183;-42
2022/03/20 04:45:58;;;;;;;25.33;15.73;;;3.00;99.90;;;;;;5096829;28;20538;-41
2022/03/20 04:59:22;;;;;;;26.83;15.80;;;2.90;99.90;;;;;;5096514;28;20263;-42
2022/03/20 05:01:48;;;;;;;28.53;16.17;;;2.90;99.90;;;;;;5096523;28;20179;-41
2022/03/20 05:04:14;;;;;;;31.20;17.30;;;2.90;99.90;;;;;;5096521;28;20535;-42
2022/03/20 05:06:42;;;;;;;23.90;16.00;;;2.80;99.90;;;;;;5095702;28;20701;-42
2022/03/20 05:14:36;;;;;;;24.10;15.37;;;2.80;99.90;;;;;;5096328;28;20688;-43
2022/03/20 05:17:09;;;;;;;23.40;14.80;;;2.90;99.90;;;;;;5096120;28;20204;-43
2022/03/20 05:19:35;;;;;;;29.13;15.67;;;2.90;99.90;;;;;;5096202;28;20198;-43
2022/03/20 05:22:02;;;;;;;23.33;14.10;;;2.90;99.90;;;;;;5096363;28;20178;-43
2022/03/20 05:24:28;;;;;;;24.87;15.53;;;3.00;99.90;;;;;;5096182;28;20230;-43
2022/03/20 05:26:53;;;;;;;28.77;14.63;;;3.00;99.90;;;;;;5100979;28;20655;-44
2022/03/20 05:29:19;;;;;;;23.93;15.90;;;2.90;99.90;;;;;;5103787;28;20210;-44
2022/03/20 05:31:46;;;;;;;27.67;16.47;;;3.00;99.90;;;;;;5103195;28;20186;-45
2022/03/20 05:34:12;;;;;;;24.03;14.93;;;2.90;99.90;;;;;;5102732;28;20186;-43
2022/03/20 05:36:38;;;;;;;24.47;14.73;;;2.90;99.90;;;;;;5103422;28;20173;-44
2022/03/20 05:39:04;;;;;;;24.07;15.73;;;2.90;99.90;;;;;;5084817;28;20319;-43
2022/03/20 05:41:49;;;;;;;27.93;16.33;;;2.90;99.90;;;;;;5103085;28;20558;-43
2022/03/20 05:44:16;;;;;;;24.20;15.40;;;3.00;99.90;;;;;;5102643;28;20518;-44
2022/03/20 05:46:42;;;;;;;30.53;16.83;;;3.00;99.90;;;;;;5103644;28;20175;-46
2022/03/20 05:49:08;;;;;;;23.03;14.93;;;3.00;99.90;;;;;;5084975;28;20209;-43
2022/03/20 05:51:34;;;;;;;31.90;16.53;;;3.10;99.90;;;;;;5103262;28;20533;-45
2022/03/20 05:54:01;;;;;;;25.97;14.90;;;3.10;99.90;;;;;;5084207;28;20210;-45
2022/03/20 05:59:11;;;;;;;24.63;15.67;;;3.10;99.90;;;;;;5103214;28;20227;-44
2022/03/20 06:01:37;;;;;;;28.57;15.97;;;3.20;99.90;;;;;;5103375;28;20202;-44
2022/03/20 06:04:03;;;;;;;28.80;16.13;;;3.20;99.90;;;;;;5102634;28;20209;-44
2022/03/20 06:06:30;;;;;;;26.53;15.47;;;3.20;99.90;;;;;;5085219;28;20173;-44
2022/03/20 06:08:55;;;;;;;29.00;16.67;;;3.30;99.90;;;;;;5102423;28;20207;-44
2022/03/20 06:11:21;;;;;;;27.63;15.93;;;3.30;99.90;;;;;;5101996;28;20242;-44
2022/03/20 06:13:48;;;;;;;29.53;16.13;;;3.30;99.90;;;;;;5105150;28;20210;-46
2022/03/20 06:16:16;;;;;;;29.03;16.17;;;3.40;99.90;;;;;;5102914;28;20269;-45
2022/03/20 06:18:42;;;;;;;28.43;16.13;;;3.40;99.90;;;;;;5101761;28;20224;-46
2022/03/20 06:21:11;;;;;;;27.00;16.47;;;3.40;99.90;;;;;;5102024;28;20263;-45
2022/03/20 06:23:40;;;;;;;30.37;16.70;;;3.40;99.90;;;;;;5102596;28;20182;-45
2022/03/20 06:26:08;;;;;;;32.07;17.07;;;3.50;99.90;;;;;;5101200;28;20179;-44
2022/03/20 06:28:34;;;;;;;24.73;15.40;;;5.20;99.90;;;;;;5101352;28;20208;-46
2022/03/20 06:31:00;;;;;;;30.33;16.13;;;3.60;99.90;;;;;;5083486;28;20550;-44
2022/03/20 06:33:26;;;;;;;26.27;12.63;;;3.60;99.90;;;;;;5096971;28;20207;-42
2022/03/20 06:35:53;;;;;;;29.23;15.73;;;3.70;99.90;;;;;;5094646;28;20186;-41
2022/03/20 06:38:22;;;;;;;29.33;16.43;;;3.80;99.90;;;;;;5094892;28;20186;-42
2022/03/20 06:40:48;;;;;;;31.97;16.77;;;3.80;99.90;;;;;;5095104;28;20175;-43
2022/03/20 06:43:16;;;;;;;28.87;17.53;;;3.90;99.90;;;;;;5076713;28;20301;-43
2022/03/20 06:45:46;;;;;;;27.50;15.67;;;3.90;99.90;;;;;;5094889;28;20185;-41
2022/03/20 06:48:12;;;;;;;31.70;17.20;;;3.90;99.90;;;;;;5094917;28;20178;-41
2022/03/20 06:50:38;;;;;;;31.40;17.00;;;4.00;99.90;;;;;;5094572;28;20186;-42
2022/03/20 06:53:04;;;;;;;33.23;16.70;;;4.00;99.90;;;;;;5076099;28;20207;-42
2022/03/20 06:55:33;;;;;;;27.37;16.97;;;4.10;99.90;;;;;;5094509;28;20279;-42
2022/03/20 06:57:59;;;;;;;29.77;16.63;;;4.20;99.90;;;;;;5094607;28;20270;-40
2022/03/20 07:00:26;;;;;;;30.27;17.37;;;4.20;99.90;;;;;;5075792;28;20223;-40
2022/03/20 07:02:55;;;;;;;34.33;16.63;;;4.20;99.90;;;;;;5094295;28;20247;-41
2022/03/20 07:05:21;;;;;;;26.23;16.97;;;4.30;99.90;;;;;;5094017;28;20669;-41
2022/03/20 07:07:47;;;;;;;28.47;18.07;;;4.30;99.90;;;;;;5094377;28;20170;-41
2022/03/20 07:10:20;;;;;;;31.20;16.77;;;4.30;99.90;;;;;;5094250;28;20674;-40
2022/03/20 07:12:46;;;;;;;31.43;17.60;;;4.40;99.90;;;;;;5094171;28;20233;-40
2022/03/20 07:15:11;;;;;;;34.40;17.10;;;4.50;99.90;;;;;;5094214;28;20611;-41
2022/03/20 07:17:37;;;;;;;28.90;16.20;;;4.60;99.90;;;;;;5094103;28;20265;-40
2022/03/20 07:20:09;;;;;;;29.93;17.00;;;4.60;99.90;;;;;;5093812;28;20291;-43
2022/03/20 07:22:35;;;;;;;25.60;16.80;;;4.70;99.90;;;;;;5075790;28;20264;-39
2022/03/20 07:29:29;;;;;;;29.00;17.30;;;4.70;99.90;;;;;;5093732;28;20175;-39
2022/03/20 07:30:30;;;;;;;32.97;17.10;;;4.80;99.90;;;;;;5093700;28;20190;-39
2022/03/20 07:32:56;;;;;;;29.33;17.57;;;4.90;99.90;;;;;;5093800;28;20210;-40
2022/03/20 07:35:21;;;;;;;23.47;16.13;;;4.90;99.90;;;;;;5093780;28;20603;-41
2022/03/20 07:37:47;;;;;;;28.37;17.53;;;4.90;99.90;;;;;;5093684;28;20642;-42
2022/03/20 07:40:13;;;;;;;30.43;17.10;;;4.90;99.90;;;;;;5093886;28;20203;-40
2022/03/20 07:42:38;;;;;;;27.13;17.33;;;5.00;99.90;;;;;;5094157;28;20686;-41
2022/03/20 07:45:05;;;;;;;31.27;17.37;;;5.10;99.90;;;;;;5094063;28;20285;-42
2022/03/20 07:47:30;;;;;;;29.50;14.67;;;5.30;99.90;;;;;;5094779;28;20179;-41
2022/03/20 07:49:56;;;;;;;36.17;17.13;;;5.30;99.90;;;;;;5094024;28;20670;-42
2022/03/20 07:52:22;;;;;;;28.73;16.53;;;5.50;99.90;;;;;;5093567;28;20208;-41
2022/03/20 07:54:47;;;;;;;26.53;16.57;;;5.60;99.90;;;;;;5093475;28;20177;-41
2022/03/20 07:57:13;;;;;;;27.47;17.63;;;5.80;99.90;;;;;;5093696;28;20254;-40
2022/03/20 07:59:39;;;;;;;25.60;17.07;;;6.00;99.90;;;;;;5075232;28;20309;-42
2022/03/20 08:02:06;;;;;;;27.77;17.20;;;6.10;99.90;;;;;;5076399;28;20171;-41
2022/03/20 08:04:32;;;;;;;29.00;17.70;;;6.30;99.90;;;;;;5094301;28;20183;-43
2022/03/20 08:06:57;;;;;;;27.33;17.17;;;6.40;99.90;;;;;;5095280;28;20175;-42
2022/03/20 08:09:23;;;;;;;30.40;18.00;;;6.50;99.90;;;;;;5094194;28;20190;-43
2022/03/20 08:11:49;;;;;;;25.10;15.13;;;6.60;99.90;;;;;;5093447;28;20194;-42
2022/03/20 08:14:14;;;;;;;30.87;17.73;;;6.80;99.90;;;;;;5093462;28;20223;-43
2022/03/20 08:16:41;;;;;;;23.23;15.23;;;6.90;99.90;;;;;;5075129;28;20673;-42
2022/03/20 08:19:08;;;;;;;29.50;17.13;;;7.00;99.90;;;;;;5093842;28;20620;-42
2022/03/20 08:21:35;;;;;;;26.77;17.27;;;7.20;99.90;;;;;;5093329;28;20696;-43
2022/03/20 08:24:02;;;;;;;27.57;15.80;;;7.30;99.90;;;;;;5093496;28;20175;-43
2022/03/20 08:26:31;;;;;;;25.70;15.10;;;7.40;99.90;;;;;;5093459;28;20221;-43
2022/03/20 08:28:58;;;;;;;18.50;11.77;;;7.40;99.90;;;;;;5093379;28;20231;-43
2022/03/20 08:31:24;;;;;;;25.53;15.50;;;7.40;99.90;;;;;;5093372;28;20639;-42
2022/03/20 08:33:50;;;;;;;29.80;17.17;;;7.30;99.90;;;;;;5093222;28;20215;-42
2022/03/20 08:36:15;;;;;;;26.20;16.37;;;7.20;99.90;;;;;;5093346;28;20177;-43
2022/03/20 08:38:41;;;;;;;29.93;18.93;;;7.20;99.90;;;;;;5092999;28;20192;-43
2022/03/20 08:41:07;;;;;;;31.40;18.37;;;7.20;99.90;;;;;;5093304;28;20645;-43
2022/03/20 08:43:33;;;;;;;32.30;17.80;;;7.20;99.90;;;;;;5096539;28;20580;-44
2022/03/20 08:45:58;;;;;;;25.07;16.83;;;7.20;99.90;;;;;;5097256;28;20535;-39
2022/03/20 08:48:24;;;;;;;32.67;18.20;;;7.30;99.90;;;;;;5078930;28;20234;-41
2022/03/20 08:50:50;;;;;;;27.00;17.70;;;7.30;99.90;;;;;;5096918;28;20180;-43
2022/03/20 08:53:17;;;;;;;27.50;16.53;;;7.40;99.90;;;;;;5097637;28;20196;-45
2022/03/20 08:55:44;;;;;;;27.60;16.37;;;7.40;99.90;;;;;;5088959;28;20182;-44
2022/03/20 08:58:11;;;;;;;27.57;16.53;;;7.40;99.90;;;;;;5096758;28;20238;-38
2022/03/20 09:00:37;;;;;;;24.17;14.03;;;7.50;99.90;;;;;;5096666;28;20187;-41
2022/03/20 09:03:03;;;;;;;28.97;19.03;;;7.50;99.90;;;;;;5096449;28;20174;-40
2022/03/20 09:05:29;;;;;;;25.60;15.70;;;7.50;99.90;;;;;;5096396;28;20235;-42
2022/03/20 09:07:57;;;;;;;25.10;16.20;;;7.50;99.90;;;;;;5096407;28;20179;-41
2022/03/20 09:10:23;;;;;;;26.80;17.20;;;7.50;99.90;;;;;;5096369;28;20308;-42
2022/03/20 09:12:49;;;;;;;22.47;13.43;;;7.50;99.90;;;;;;5096671;28;20267;-41
2022/03/20 09:15:17;;;;;;;22.67;14.77;;;7.40;99.90;;;;;;5096421;28;20634;-41
2022/03/20 09:20:30;;;;;;;28.60;18.47;;;7.40;99.90;;;;;;5096965;28;20170;-43
2022/03/20 09:22:56;;;;;;;25.00;16.70;;;7.30;99.90;;;;;;5096476;28;20642;-44
2022/03/20 09:25:22;;;;;;;19.90;11.90;;;7.30;99.90;;;;;;5096424;28;20214;-41
2022/03/20 09:27:48;;;;;;;45.93;27.67;;;7.30;99.90;;;;;;5096354;28;20175;-41
2022/03/20 09:30:15;;;;;;;31.83;18.00;;;7.20;99.90;;;;;;5095984;28;20553;-39
2022/03/20 09:32:41;;;;;;;19.93;12.77;;;7.20;99.90;;;;;;5096771;28;20670;-42
2022/03/20 09:35:08;;;;;;;24.00;15.13;;;7.20;99.90;;;;;;5095855;28;20182;-39
2022/03/20 09:37:34;;;;;;;33.17;20.57;;;7.20;99.90;;;;;;5096123;28;20175;-41
2022/03/20 09:40:00;;;;;;;31.30;20.17;;;7.10;99.90;;;;;;5095648;28;20274;-41
2022/03/20 09:42:25;;;;;;;31.40;19.10;;;7.10;99.90;;;;;;5095671;28;20186;-43
2022/03/20 09:44:51;;;;;;;30.97;19.10;;;7.10;99.90;;;;;;5095724;28;20262;-42
2022/03/20 09:47:17;;;;;;;31.00;19.00;;;7.20;99.90;;;;;;5077885;28;20175;-42
2022/03/20 09:49:46;;;;;;;30.80;20.17;;;7.20;99.90;;;;;;5095512;28;20211;-43
2022/03/20 09:52:13;;;;;;;27.40;18.77;;;7.20;99.90;;;;;;5095548;28;20729;-40
2022/03/20 09:54:38;;;;;;;32.63;19.20;;;7.90;99.90;;;;;;5095502;28;20177;-41
2022/03/20 09:57:06;;;;;;;31.00;17.30;;;7.40;99.90;;;;;;5095460;28;20178;-40
2022/03/20 09:59:33;;;;;;;28.37;19.27;;;7.40;99.90;;;;;;5095379;28;20210;-41
2022/03/20 10:02:03;;;;;;;31.20;18.53;;;7.60;99.90;;;;;;5095556;28;20772;-42
2022/03/20 10:04:29;;;;;;;31.17;18.50;;;7.70;99.90;;;;;;5095527;28;20171;-44
2022/03/20 10:06:55;;;;;;;31.23;19.90;;;7.80;99.90;;;;;;5096314;28;20211;-40
2022/03/20 10:09:23;;;;;;;31.73;18.67;;;7.90;99.90;;;;;;5095360;28;20617;-42
2022/03/20 10:11:54;;;;;;;30.17;18.30;;;8.00;99.90;;;;;;5095268;28;20619;-43
2022/03/20 10:14:31;;;;;;;26.67;15.03;;;8.20;99.90;;;;;;5077006;28;20182;-43
2022/03/20 10:17:16;;;;;;;28.37;17.10;;;8.30;99.90;;;;;;5095325;28;20167;-42
2022/03/20 10:19:42;;;;;;;29.67;18.23;;;8.30;99.90;;;;;;5095040;28;20193;-42
2022/03/20 10:22:14;;;;;;;21.40;11.27;;;8.50;99.90;;;;;;5095185;28;20228;-42
2022/03/20 10:24:50;;;;;;;29.37;19.00;;;8.50;99.90;;;;;;5095191;28;20241;-40
2022/03/20 10:27:16;;;;;;;25.53;15.37;;;8.60;99.90;;;;;;5095213;28;20618;-42
2022/03/20 10:29:57;;;;;;;26.87;14.80;;;8.70;99.90;;;;;;5094928;28;20194;-43
2022/03/20 10:32:24;;;;;;;23.93;14.23;;;8.80;99.90;;;;;;5097085;28;20286;-41
2022/03/20 10:34:51;;;;;;;26.20;18.83;;;9.00;99.90;;;;;;5094959;28;20253;-41
2022/03/20 10:37:18;;;;;;;30.47;19.30;;;9.10;99.90;;;;;;5094751;28;20171;-41
2022/03/20 10:39:45;;;;;;;27.87;18.30;;;9.30;99.90;;;;;;5094558;28;20183;-43
2022/03/20 10:42:15;;;;;;;27.27;19.17;;;9.40;99.90;;;;;;5076462;28;20171;-41
2022/03/20 10:44:41;;;;;;;27.87;18.93;;;9.50;99.90;;;;;;5094863;28;20159;-43
2022/03/20 10:47:12;;;;;;;27.03;18.30;;;9.60;99.90;;;;;;5095893;28;20174;-46
2022/03/20 10:49:58;;;;;;;27.47;18.83;;;9.60;99.90;;;;;;5076392;28;20198;-42
2022/03/20 10:52:24;;;;;;;29.60;19.17;;;9.60;99.90;;;;;;5058825;28;20206;-42
2022/03/20 10:54:51;;;;;;;22.73;12.87;;;9.70;99.90;;;;;;5094588;28;20167;-42
2022/03/20 10:57:17;;;;;;;27.07;17.27;;;9.80;99.90;;;;;;5094391;28;20166;-43
2022/03/20 10:59:56;;;;;;;29.50;19.43;;;9.90;99.90;;;;;;5094121;28;20683;-43
2022/03/20 11:02:23;;;;;;;18.40;11.80;;;10.10;99.90;;;;;;5076405;28;20203;-43
2022/03/20 11:04:49;;;;;;;30.07;18.87;;;10.20;99.90;;;;;;5076304;28;20179;-39
2022/03/20 11:07:19;;;;;;;29.20;19.13;;;10.30;99.90;;;;;;5095221;28;20194;-43
2022/03/20 11:09:50;;;;;;;29.40;17.70;;;10.40;99.90;;;;;;5094941;28;20187;-42
2022/03/20 11:12:27;;;;;;;29.50;19.23;;;10.60;99.90;;;;;;5094679;28;20679;-42
2022/03/20 11:14:57;;;;;;;30.17;20.57;;;10.60;99.90;;;;;;5096341;28;20184;-43
2022/03/20 11:17:27;;;;;;;49.77;28.67;;;10.50;99.90;;;;;;5097388;28;20170;-41
2022/03/20 11:19:56;;;;;;;34.50;21.73;;;10.60;99.90;;;;;;5079624;28;20250;-41
2022/03/20 11:22:22;;;;;;;34.23;19.43;;;10.60;99.90;;;;;;5098289;28;20186;-43
2022/03/20 11:24:51;;;;;;;29.40;18.43;;;10.60;99.90;;;;;;5095016;28;20186;-45
2022/03/20 11:27:27;;;;;;;30.20;19.67;;;10.60;99.90;;;;;;5094672;28;20276;-41
2022/03/20 11:30:01;;;;;;;24.43;14.60;;;10.60;99.90;;;;;;5076210;28;20197;-42
2022/03/20 11:32:27;;;;;;;30.13;20.90;;;10.60;99.90;;;;;;5075987;28;20207;-43
2022/03/20 11:34:54;;;;;;;29.57;19.67;;;10.70;99.90;;;;;;5076435;28;20268;-42
2022/03/20 11:37:19;;;;;;;27.90;19.80;;;10.70;99.90;;;;;;5094179;28;20181;-41
2022/03/20 11:40:17;;;;;;;33.10;20.73;;;10.70;99.90;;;;;;5094102;28;20547;-42
2022/03/20 11:42:42;;;;;;;34.03;18.70;;;10.80;99.90;;;;;;5094138;28;20178;-42
2022/03/20 11:45:20;;;;;;;28.30;20.20;;;10.80;99.90;;;;;;5094409;28;20181;-42
2022/03/20 11:47:50;;;;;;;29.33;20.43;;;10.80;99.90;;;;;;5094682;28;20180;-42
2022/03/20 11:50:20;;;;;;;31.37;20.00;;;10.70;99.90;;;;;;5094899;28;20609;-42
2022/03/20 11:52:54;;;;;;;29.30;18.37;;;10.70;99.90;;;;;;5095493;28;20217;-42
2022/03/20 11:55:27;;;;;;;28.87;19.90;;;10.60;99.90;;;;;;5097851;28;20155;-42
2022/03/20 11:57:53;;;;;;;30.43;19.73;;;10.60;99.90;;;;;;5094435;28;20192;-43
2022/03/20 12:00:24;;;;;;;35.60;19.97;;;10.50;99.90;;;;;;5093787;28;20288;-43
2022/03/20 12:03:07;;;;;;;30.90;18.53;;;10.50;99.90;;;;;;5093998;28;20698;-43
2022/03/20 12:05:42;;;;;;;32.47;19.60;;;10.50;99.90;;;;;;5093896;28;20588;-44
2022/03/20 12:08:26;;;;;;;28.77;21.13;;;10.40;99.90;;;;;;5093693;28;20527;-45
2022/03/20 12:11:29;;;;;;;31.93;20.03;;;10.30;99.90;;;;;;5093437;28;20245;-44
2022/03/20 12:14:23;;;;;;;32.73;21.37;;;10.20;99.90;;;;;;5093249;28;20202;-45
2022/03/20 12:16:50;;;;;;;32.23;21.50;;;10.10;99.90;;;;;;5094104;28;20644;-45
2022/03/20 12:19:21;;;;;;;29.87;19.57;;;10.00;99.90;;;;;;5079155;28;20229;-45
2022/03/20 12:22:01;;;;;;;28.17;19.17;;;9.90;99.90;;;;;;5097572;28;20169;-43
2022/03/20 12:24:35;;;;;;;23.90;14.77;;;9.80;99.90;;;;;;5097548;28;20306;-43
2022/03/20 12:30:30;;;;;;;32.93;20.97;;;9.60;99.90;;;;;;5097140;28;20711;-42
2022/03/20 12:32:58;;;;;;;26.47;19.03;;;9.60;99.90;;;;;;5097279;28;20202;-45
2022/03/20 12:35:43;;;;;;;24.37;13.60;;;9.60;99.90;;;;;;5097904;28;20646;-45
2022/03/20 12:38:35;;;;;;;30.07;20.20;;;9.50;99.90;;;;;;5079645;28;20677;-43
2022/03/20 12:41:13;;;;;;;28.23;18.03;;;9.50;99.90;;;;;;5097477;28;20202;-43
2022/03/20 12:43:40;;;;;;;30.10;19.17;;;9.50;99.90;;;;;;5098262;28;20228;-44
2022/03/20 12:46:08;;;;;;;27.13;19.90;;;9.50;99.90;;;;;;5098426;28;20663;-42
2022/03/20 12:48:35;;;;;;;27.97;20.73;;;9.50;99.90;;;;;;5097173;28;20226;-44
2022/03/20 12:51:11;;;;;;;33.27;21.50;;;9.50;99.90;;;;;;5097194;28;20182;-44
2022/03/20 12:53:43;;;;;;;27.23;19.63;;;9.50;99.90;;;;;;5096697;28;20212;-43
2022/03/20 12:56:19;;;;;;;30.40;21.43;;;9.60;99.90;;;;;;5097155;28;20158;-44
2022/03/20 12:58:45;;;;;;;28.30;20.53;;;9.50;99.90;;;;;;5078502;28;20212;-41
2022/03/20 13:01:11;;;;;;;30.17;21.37;;;9.50;99.90;;;;;;5097005;28;20177;-42
2022/03/20 13:03:36;;;;;;;26.63;19.43;;;9.50;99.90;;;;;;5078688;28;20281;-42
2022/03/20 13:06:03;;;;;;;34.47;20.33;;;9.50;99.90;;;;;;5097032;28;20640;-42
2022/03/20 13:08:34;;;;;;;29.83;20.17;;;9.50;99.90;;;;;;5078544;28;20535;-43
2022/03/20 13:11:48;;;;;;;28.57;20.63;;;9.50;99.90;;;;;;5096386;28;20186;-43
2022/03/20 13:14:12;;;;;;;29.73;19.50;;;9.60;99.90;;;;;;5096240;28;20201;-43
2022/03/20 13:16:53;;;;;;;29.70;20.23;;;9.70;99.90;;;;;;5078121;28;20277;-43